Time;durP1;ratioP1;P1;durP2;ratioP2;P2;SDS_P1;SDS_P2;PMS_P1;PMS_P2;Temp;Humidity;BMP_temperature;BMP_pressure;BME280_temperature;BME280_humidity;BME280_pressure;Samples;Min_cycle;Max_cycle;Signal;HPM_P1;HPM_P2
2023/04/11 00:02:13;;;;;;;35.78;8.73;;;;;;;8.60;100.00;100773.50;5052060;28;20487;-57
2023/04/11 00:04:39;;;;;;;46.42;10.98;;;;;;;8.56;100.00;100772.53;5052365;28;20060;-57
2023/04/11 00:07:06;;;;;;;36.13;9.18;;;;;;;8.47;100.00;100778.22;5052603;28;20025;-57
2023/04/11 00:09:32;;;;;;;39.47;9.95;;;;;;;8.40;100.00;100771.06;5051544;28;20028;-56
2023/04/11 00:11:57;;;;;;;44.67;10.27;;;;;;;8.36;100.00;100774.31;5054569;28;20111;-56
2023/04/11 00:14:23;;;;;;;41.58;10.40;;;;;;;8.33;100.00;100776.78;5056241;28;20027;-57
2023/04/11 00:16:52;;;;;;;32.85;10.30;;;;;;;8.34;100.00;100773.38;5056214;28;20029;-56
2023/04/11 00:19:22;;;;;;;43.83;11.10;;;;;;;8.31;100.00;100775.84;5056238;28;20108;-56
2023/04/11 00:21:47;;;;;;;49.38;10.98;;;;;;;8.32;100.00;100777.59;5055714;28;20032;-56
2023/04/11 00:24:12;;;;;;;43.70;10.13;;;;;;;8.27;100.00;100785.13;5056373;28;20032;-56
2023/04/11 00:26:38;;;;;;;42.95;11.15;;;;;;;8.21;100.00;100787.44;5055841;28;20029;-56
2023/04/11 00:29:03;;;;;;;47.75;11.50;;;;;;;8.11;100.00;100782.78;5055787;28;20029;-57
2023/04/11 00:31:28;;;;;;;47.15;11.77;;;;;;;8.03;100.00;100788.50;5056127;28;20025;-56
2023/04/11 00:33:54;;;;;;;47.55;11.85;;;;;;;7.96;100.00;100783.06;5056524;28;20032;-57
2023/04/11 00:36:19;;;;;;;55.00;12.50;;;;;;;7.91;100.00;100786.34;5055078;28;20439;-53
2023/04/11 00:38:45;;;;;;;36.63;11.95;;;;;;;7.88;100.00;100786.22;5056041;28;20032;-56
2023/04/11 00:41:10;;;;;;;51.75;12.05;;;;;;;7.86;100.00;100798.13;5055900;28;20075;-57
2023/04/11 00:43:36;;;;;;;47.80;12.32;;;;;;;7.82;100.00;100796.22;5055131;28;20028;-57
2023/04/11 00:46:02;;;;;;;50.50;12.30;;;;;;;7.77;100.00;100794.28;5056140;28;20033;-56
2023/04/11 00:48:28;;;;;;;58.38;12.95;;;;;;;7.75;100.00;100794.25;5055925;28;20096;-56
2023/04/11 00:50:54;;;;;;;53.80;12.07;;;;;;;7.72;100.00;100789.88;5055171;28;20087;-56
2023/04/11 00:53:19;;;;;;;44.92;11.98;;;;;;;7.73;100.00;100793.28;5055780;28;20036;-55
2023/04/11 00:55:45;;;;;;;44.75;11.98;;;;;;;7.74;100.00;100797.63;5055753;28;20383;-56
2023/04/11 00:58:11;;;;;;;51.38;12.07;;;;;;;7.75;100.00;100794.25;5055165;28;20029;-56
2023/04/11 01:00:37;;;;;;;50.40;12.82;;;;;;;7.80;100.00;100792.72;5055585;28;20041;-56
2023/04/11 01:03:03;;;;;;;46.50;12.07;;;;;;;7.78;100.00;100794.34;5055468;28;20052;-57
2023/04/11 01:05:31;;;;;;;54.15;12.65;;;;;;;7.78;100.00;100791.78;5054659;28;20021;-56
2023/04/11 01:07:56;;;;;;;;;;;;;;;7.82;100.00;100788.53;5056254;28;20079;-57
2023/04/11 01:10:23;;;;;;;50.15;12.05;;;;;;;7.83;100.00;100787.72;5055353;28;19967;-57
2023/04/11 01:12:49;;;;;;;40.87;11.80;;;;;;;7.83;100.00;100787.72;5054968;28;20029;-57
2023/04/11 01:15:14;;;;;;;51.30;11.63;;;;;;;7.81;100.00;100781.66;5055778;28;20013;-57
2023/04/11 01:17:40;;;;;;;49.35;11.80;;;;;;;7.80;100.00;100792.72;5055214;28;20032;-56
2023/04/11 01:20:07;;;;;;;45.83;11.27;;;;;;;7.80;100.00;100792.72;5054748;28;20040;-57
2023/04/11 01:22:35;;;;;;;46.28;12.00;;;;;;;7.75;100.00;100789.09;5054694;28;20082;-56
2023/04/11 01:25:00;;;;;;;55.15;11.55;;;;;;;7.71;100.00;100782.97;5054741;28;20051;-56
2023/04/11 01:27:26;;;;;;;54.15;11.63;;;;;;;7.70;100.00;100788.03;5055072;28;20396;-56
2023/04/11 01:29:51;;;;;;;48.25;11.07;;;;;;;7.68;100.00;100789.66;5055318;28;20526;-57
2023/04/11 01:32:17;;;;;;;46.47;10.98;;;;;;;7.64;100.00;100791.22;5054207;28;20037;-57
2023/04/11 01:34:45;;;;;;;51.85;11.30;;;;;;;7.64;100.00;100786.09;5055270;28;20021;-56
2023/04/11 01:37:11;;;;;;;48.42;10.60;;;;;;;7.60;100.00;100788.50;5055247;28;20031;-56
2023/04/11 01:39:36;;;;;;;45.67;11.38;;;;;;;7.56;100.00;100784.91;5054183;28;20376;-57
2023/04/11 01:42:03;;;;;;;53.60;11.85;;;;;;;7.54;100.00;100795.13;5055040;28;20033;-56
2023/04/11 01:44:31;;;;;;;45.08;11.20;;;;;;;7.48;100.00;100800.00;5054785;28;20472;-56
2023/04/11 01:46:56;;;;;;;67.10;13.82;;;;;;;7.46;100.00;100811.00;5054300;28;20096;-56
2023/04/11 01:49:23;;;;;;;45.65;11.40;;;;;;;7.44;100.00;100813.50;5054766;28;20167;-57
2023/04/11 01:51:48;;;;;;;55.22;11.50;;;;;;;7.39;100.00;100817.56;5054941;28;20025;-56
2023/04/11 01:54:14;;;;;;;52.35;11.65;;;;;;;7.36;100.00;100814.84;5054203;28;20071;-57
2023/04/11 01:56:39;;;;;;;49.55;12.18;;;;;;;7.33;100.00;100823.28;5054519;28;20380;-56
2023/04/11 01:59:04;;;;;;;60.22;12.40;;;;;;;7.29;100.00;100823.13;5054748;28;20027;-57
2023/04/11 02:01:30;;;;;;;38.72;9.98;;;;;;;7.27;100.00;100829.84;5053434;28;20021;-57
2023/04/11 02:03:56;;;;;;;55.42;11.63;;;;;;;7.29;100.00;100823.13;5054446;28;20052;-56
2023/04/11 02:06:21;;;;;;;57.65;12.60;;;;;;;7.31;100.00;100831.72;5054326;28;20369;-55
2023/04/11 02:08:46;;;;;;;58.03;11.55;;;;;;;7.36;100.00;100835.38;5053833;28;20032;-57
2023/04/11 02:11:12;;;;;;;47.40;10.38;;;;;;;7.36;100.00;100826.00;5054708;28;20021;-56
2023/04/11 02:13:37;;;;;;;43.63;10.98;;;;;;;7.40;100.00;100833.00;5054114;28;20017;-56
2023/04/11 02:16:13;;;;;;;60.25;12.38;;;;;;;7.40;100.00;100832.13;5053698;28;20504;-56
2023/04/11 02:18:38;;;;;;;55.35;11.95;;;;;;;7.43;100.00;100828.84;5053977;28;20025;-56
2023/04/11 02:21:04;;;;;;;50.70;11.35;;;;;;;7.40;100.00;100834.72;5053623;28;20078;-56
2023/04/11 02:23:30;;;;;;;47.72;11.02;;;;;;;7.37;100.00;100843.16;5054025;28;20032;-56
2023/04/11 02:25:55;;;;;;;51.55;11.35;;;;;;;7.36;100.00;100845.63;5054253;28;20021;-56
2023/04/11 02:28:21;;;;;;;45.88;10.63;;;;;;;7.35;100.00;100841.31;5053191;28;20025;-56
2023/04/11 02:30:47;;;;;;;48.40;10.90;;;;;;;7.37;100.00;100832.00;5054142;28;20025;-57
2023/04/11 02:33:12;;;;;;;50.47;11.20;;;;;;;7.34;100.00;100842.13;5053895;28;20079;-56
2023/04/11 02:35:38;;;;;;;54.42;11.13;;;;;;;7.34;100.00;100839.56;5052389;28;20112;-56
2023/04/11 02:38:03;;;;;;;55.88;10.32;;;;;;;7.32;100.00;100842.06;5054044;28;20021;-57
2023/04/11 02:40:28;;;;;;;52.28;10.45;;;;;;;7.28;100.00;100841.88;5053533;28;20044;-57
2023/04/11 02:42:53;;;;;;;45.88;10.25;;;;;;;7.25;100.00;100840.03;5053048;28;20461;-56
2023/04/11 02:45:19;;;;;;;49.33;11.13;;;;;;;7.23;100.00;100841.66;5053391;28;20025;-57
2023/04/11 02:47:44;;;;;;;44.30;9.43;;;;;;;7.23;100.00;100845.09;5053883;28;20066;-57
2023/04/11 02:50:10;;;;;;;42.03;9.13;;;;;;;7.20;100.00;100850.09;5052948;28;20059;-56
2023/04/11 02:52:38;;;;;;;49.38;9.68;;;;;;;7.16;100.00;100844.78;5053273;28;20484;-57
2023/04/11 02:55:03;;;;;;;;;;;;;;;7.18;100.00;100851.72;5054346;28;20025;-57
2023/04/11 02:57:28;;;;;;;39.50;8.73;;;;;;;7.04;100.00;100840.88;5052419;28;20019;-56
2023/04/11 02:59:54;;;;;;;41.38;8.48;;;;;;;7.02;100.00;100854.41;5053636;28;20033;-56
2023/04/11 03:02:22;;;;;;;38.50;8.48;;;;;;;7.00;100.00;100861.19;5053077;28;20056;-57
2023/04/11 03:04:47;;;;;;;39.85;8.25;;;;;;;6.92;100.00;100863.41;5052582;28;20041;-57
2023/04/11 03:07:12;;;;;;;38.30;8.32;;;;;;;6.89;100.00;100863.25;5053359;28;20017;-55
2023/04/11 03:09:37;;;;;;;39.35;8.88;;;;;;;6.91;100.00;100859.09;5053222;28;20033;-56
2023/04/11 03:12:03;;;;;;;40.28;8.15;;;;;;;6.94;100.00;100866.91;5052573;28;20021;-56
2023/04/11 03:14:28;;;;;;;36.17;7.72;;;;;;;6.95;100.00;100863.53;5053024;28;20033;-57
2023/04/11 03:16:53;;;;;;;34.75;7.30;;;;;;;7.00;100.00;100868.88;5053200;28;20079;-56
2023/04/11 03:19:19;;;;;;;36.05;8.13;;;;;;;7.02;100.00;100869.78;5052277;28;20028;-56
2023/04/11 03:21:44;;;;;;;41.58;8.20;;;;;;;7.04;100.00;100868.19;5053047;28;20020;-56
2023/04/11 03:24:11;;;;;;;30.85;6.65;;;;;;;7.04;100.00;100875.88;5053209;28;20032;-57
2023/04/11 03:26:36;;;;;;;35.92;8.13;;;;;;;7.04;100.00;100881.00;5052064;28;20454;-56
2023/04/11 03:29:02;;;;;;;38.90;7.45;;;;;;;7.05;100.00;100880.16;5053047;28;20072;-56
2023/04/11 03:31:29;;;;;;;35.28;7.00;;;;;;;7.06;100.00;100881.94;5051900;28;20082;-57
2023/04/11 03:33:54;;;;;;;43.10;7.67;;;;;;;7.08;100.00;100886.31;5053121;28;20101;-56
2023/04/11 03:36:21;;;;;;;27.85;6.72;;;;;;;7.11;100.00;100885.56;5052759;28;20052;-56
2023/04/11 03:38:46;;;;;;;30.40;5.93;;;;;;;7.13;100.00;100891.66;5052641;28;20036;-57
2023/04/11 03:41:12;;;;;;;30.98;5.93;;;;;;;7.16;100.00;100889.22;5052806;28;20025;-57
2023/04/11 03:43:37;;;;;;;28.33;5.90;;;;;;;7.19;100.00;100901.28;5052607;28;20044;-56
2023/04/11 03:46:03;;;;;;;33.45;5.18;;;;;;;7.21;100.00;100900.53;5051913;28;20123;-56
2023/04/11 03:48:29;;;;;;;28.90;5.35;;;;;;;7.23;100.00;100901.50;5052734;28;20013;-57
2023/04/11 03:50:55;;;;;;;29.37;5.50;;;;;;;7.23;100.00;100901.50;5053020;28;20027;-57
2023/04/11 03:53:20;;;;;;;25.33;4.93;;;;;;;7.23;100.00;100901.50;5051881;28;20025;-57
2023/04/11 03:55:47;;;;;;;28.75;5.07;;;;;;;7.24;100.00;100910.97;5052863;28;20539;-57
2023/04/11 03:58:13;;;;;;;24.33;4.78;;;;;;;7.21;100.00;100898.00;5052621;28;20106;-57
2023/04/11 04:00:38;;;;;;;31.02;5.57;;;;;;;7.20;100.00;100900.50;5051639;28;20063;-57
2023/04/11 04:03:05;;;;;;;25.65;5.25;;;;;;;7.16;100.00;100909.72;5052465;28;20124;-57
2023/04/11 04:05:31;;;;;;;36.20;5.75;;;;;;;7.14;100.00;100906.22;5052601;28;20037;-57
2023/04/11 04:07:56;;;;;;;25.20;5.43;;;;;;;7.13;100.00;100909.59;5051945;28;20044;-56
2023/04/11 04:10:21;;;;;;;24.45;5.10;;;;;;;7.08;100.00;100916.22;5052378;28;20036;-57
2023/04/11 04:12:46;;;;;;;31.50;6.20;;;;;;;7.05;100.00;100905.78;5052593;28;20021;-57
2023/04/11 04:15:13;;;;;;;24.00;5.10;;;;;;;6.99;100.00;100914.09;5051729;28;20021;-57
2023/04/11 04:17:39;;;;;;;24.42;4.82;;;;;;;6.93;100.00;100911.25;5052375;28;20029;-57
2023/04/11 04:20:06;;;;;;;28.83;5.75;;;;;;;6.83;100.00;100914.19;5052561;28;20024;-57
2023/04/11 04:22:32;;;;;;;34.25;6.18;;;;;;;6.78;100.00;100915.69;5051434;28;20028;-57
2023/04/11 04:24:58;;;;;;;27.85;5.00;;;;;;;6.73;100.00;100913.78;5052748;28;20032;-56
2023/04/11 04:27:23;;;;;;;27.38;5.60;;;;;;;6.71;100.00;100922.22;5052293;28;20021;-57
2023/04/11 04:29:50;;;;;;;23.50;5.57;;;;;;;6.66;100.00;100921.13;5051646;28;20021;-57
2023/04/11 04:32:23;;;;;;;31.13;6.22;;;;;;;6.63;100.00;100920.97;5052005;28;20373;-57
2023/04/11 04:34:53;;;;;;;25.25;5.88;;;;;;;6.54;100.00;100929.97;5051857;28;20025;-57
2023/04/11 04:37:20;;;;;;;28.80;5.90;;;;;;;6.48;100.00;100939.94;5051993;28;20530;-57
2023/04/11 04:39:49;;;;;;;33.55;6.15;;;;;;;6.43;100.00;100933.72;5052475;28;20032;-57
2023/04/11 04:42:16;;;;;;;30.67;6.05;;;;;;;6.38;100.00;100936.06;5051501;28;20037;-57
2023/04/11 04:44:42;;;;;;;30.77;5.78;;;;;;;6.37;100.00;100936.00;5052116;28;20532;-57
2023/04/11 04:47:07;;;;;;;33.63;6.28;;;;;;;6.33;100.00;100940.06;5052481;28;20180;-56
2023/04/11 04:49:32;;;;;;;32.25;6.45;;;;;;;6.31;100.00;100948.47;5051322;28;20044;-56
2023/04/11 04:51:57;;;;;;;29.33;6.05;;;;;;;6.28;100.00;100951.78;5052197;28;20025;-56
2023/04/11 04:54:23;;;;;;;39.72;7.28;;;;;;;6.26;100.00;100951.69;5051946;28;20025;-57
2023/04/11 04:56:48;;;;;;;34.42;6.95;;;;;;;6.21;100.00;100967.63;5051347;28;20021;-56
2023/04/11 04:59:15;;;;;;;35.22;6.57;;;;;;;6.18;100.00;100968.34;5055917;28;20031;-57
2023/04/11 05:01:40;;;;;;;30.42;5.88;;;;;;;6.16;100.00;100969.06;5055877;28;20052;-56
2023/04/11 05:04:06;;;;;;;30.73;6.03;;;;;;;6.16;100.00;100975.09;5054884;28;20426;-57
2023/04/11 05:06:31;;;;;;;25.90;6.10;;;;;;;6.19;100.00;100982.03;5055402;28;20492;-55
2023/04/11 05:08:58;;;;;;;32.42;6.28;;;;;;;6.14;100.00;100981.81;5055668;28;20020;-57
2023/04/11 05:11:27;;;;;;;37.00;5.32;;;;;;;6.10;100.00;100978.19;5054477;28;20041;-57
2023/04/11 05:13:53;;;;;;;31.23;5.72;;;;;;;6.10;100.00;100974.78;5055828;28;20104;-57
2023/04/11 05:16:19;;;;;;;33.55;6.18;;;;;;;6.12;100.00;100985.97;5055359;28;20099;-57
2023/04/11 05:18:45;;;;;;;26.75;5.88;;;;;;;6.11;100.00;100986.78;5054892;28;20029;-57
2023/04/11 05:21:11;;;;;;;30.05;5.35;;;;;;;6.12;100.00;100987.66;5055447;28;20032;-57
2023/04/11 05:23:37;;;;;;;27.00;5.53;;;;;;;6.14;100.00;100992.03;5055069;28;20052;-56
2023/04/11 05:26:02;;;;;;;31.52;5.32;;;;;;;6.11;100.00;100997.00;5054553;28;20053;-57
2023/04/11 05:28:30;;;;;;;31.10;6.03;;;;;;;6.08;100.00;101001.97;5055160;28;20457;-57
2023/04/11 05:30:55;;;;;;;28.00;5.40;;;;;;;6.07;100.00;101000.22;5054867;28;20062;-57
2023/04/11 05:33:22;;;;;;;31.50;5.65;;;;;;;6.09;100.00;100998.59;5054938;28;20056;-57
2023/04/11 05:35:47;;;;;;;31.15;5.45;;;;;;;6.06;100.00;101003.59;5055254;28;20032;-57
2023/04/11 05:38:13;;;;;;;26.73;5.10;;;;;;;6.07;100.00;101005.34;5054215;28;20037;-57
2023/04/11 05:40:38;;;;;;;35.90;5.63;;;;;;;6.05;100.00;101012.91;5054850;28;20027;-57
2023/04/11 05:43:04;;;;;;;34.80;5.45;;;;;;;6.10;100.00;101018.28;5055094;28;20032;-57
2023/04/11 05:45:29;;;;;;;18.50;4.65;;;;;;;6.11;100.00;101017.50;5054081;28;20491;-57
2023/04/11 05:47:55;;;;;;;28.23;5.18;;;;;;;6.12;100.00;101029.47;5055225;28;20016;-57
2023/04/11 05:50:20;;;;;;;25.02;5.50;;;;;;;6.12;100.00;101029.47;5055010;28;20025;-56
2023/04/11 05:52:46;;;;;;;31.15;5.78;;;;;;;6.12;100.00;101029.47;5054052;28;20035;-57
2023/04/11 05:55:11;;;;;;;28.02;5.82;;;;;;;6.17;100.00;101033.16;5054793;28;20099;-56
2023/04/11 05:57:36;;;;;;;28.23;5.40;;;;;;;6.28;100.00;101036.25;5054830;28;20021;-56
2023/04/11 06:00:11;;;;;;;30.00;5.68;;;;;;;6.41;100.00;101037.72;5053850;28;20465;-56
2023/04/11 06:02:36;;;;;;;26.25;5.00;;;;;;;6.52;100.00;101041.69;5054330;28;20029;-56
2023/04/11 06:05:02;;;;;;;25.90;4.72;;;;;;;6.61;100.00;101042.94;5054385;28;20045;-56
2023/04/11 06:07:27;;;;;;;33.83;6.22;;;;;;;6.66;100.00;101056.84;5053486;28;20059;-57
2023/04/11 06:09:53;;;;;;;25.98;5.47;;;;;;;6.65;100.00;101055.09;5053380;28;20036;-56
2023/04/11 06:12:18;;;;;;;26.25;5.30;;;;;;;6.68;100.00;101058.69;5054335;28;20090;-57
2023/04/11 06:14:44;;;;;;;29.25;5.07;;;;;;;6.71;100.00;101061.41;5053750;28;20013;-57
2023/04/11 06:17:09;;;;;;;30.88;5.47;;;;;;;6.70;100.00;101056.19;5054564;28;20376;-56
2023/04/11 06:19:34;;;;;;;25.70;5.60;;;;;;;6.68;100.00;101062.94;5053923;28;20040;-55
2023/04/11 06:22:00;;;;;;;26.98;5.47;;;;;;;6.71;100.00;101061.41;5053359;28;20373;-57
2023/04/11 06:24:39;;;;;;;25.67;5.38;;;;;;;6.73;100.00;101061.47;5053848;28;20438;-56
2023/04/11 06:27:08;;;;;;;25.65;6.35;;;;;;;6.67;100.00;101061.19;5054385;28;20043;-57
2023/04/11 06:29:33;;;;;;;30.13;6.03;;;;;;;6.62;100.00;101057.50;5053213;28;20040;-57
2023/04/11 06:31:58;;;;;;;29.40;5.78;;;;;;;6.62;100.00;101067.75;5054128;28;20038;-57
2023/04/11 06:34:24;;;;;;;25.90;6.10;;;;;;;6.64;100.00;101063.59;5053009;28;20029;-57
2023/04/11 06:36:49;;;;;;;30.10;6.10;;;;;;;6.70;100.00;101061.31;5053934;28;20024;-56
2023/04/11 06:39:17;;;;;;;33.35;5.93;;;;;;;6.77;100.00;101072.75;5054049;28;20025;-56
2023/04/11 06:41:43;;;;;;;27.27;5.75;;;;;;;6.86;100.00;101076.63;5053249;28;20033;-57
2023/04/11 06:44:09;;;;;;;36.65;5.90;;;;;;;6.95;100.00;101075.34;5053895;28;20029;-57
2023/04/11 06:46:34;;;;;;;24.77;5.68;;;;;;;7.07;100.00;101078.47;5053471;28;20078;-57
2023/04/11 06:48:59;;;;;;;32.55;6.28;;;;;;;7.13;100.00;101083.88;5053069;28;20106;-57
2023/04/11 06:51:25;;;;;;;21.77;5.47;;;;;;;7.20;100.00;101080.78;5053250;28;20025;-56
2023/04/11 06:53:51;;;;;;;34.75;6.65;;;;;;;7.29;100.00;101080.34;5053891;28;20067;-57
2023/04/11 06:56:16;;;;;;;24.17;5.85;;;;;;;7.35;100.00;101084.91;5052758;28;20025;-57
2023/04/11 06:58:42;;;;;;;26.85;6.53;;;;;;;7.42;100.00;101089.50;5053723;28;20369;-57
2023/04/11 07:01:07;;;;;;;29.77;6.13;;;;;;;7.53;100.00;101096.00;5053626;28;20469;-57
2023/04/11 07:03:32;;;;;;;24.50;6.10;;;;;;;7.61;100.00;101098.03;5052395;28;20049;-57
2023/04/11 07:05:57;;;;;;;22.23;4.70;;;;;;;7.65;100.00;101094.81;5053346;28;20116;-57
2023/04/11 07:08:23;;;;;;;19.80;4.72;;;;;;;7.68;99.96;101094.94;5053287;28;20025;-57
2023/04/11 07:10:48;;;;;;;24.27;5.30;;;;;;;7.79;99.81;101092.88;5052704;28;20035;-56
2023/04/11 07:13:13;;;;;;;24.23;5.13;;;;;;;7.83;98.35;101100.75;5053530;28;20036;-56
2023/04/11 07:15:39;;;;;;;22.30;4.57;;;;;;;7.93;97.97;101111.44;5053106;28;20408;-56
2023/04/11 07:18:04;;;;;;;26.17;5.20;;;;;;;8.02;97.10;101117.00;5052454;28;20028;-56
2023/04/11 07:20:31;;;;;;;26.80;4.68;;;;;;;8.08;95.51;101117.25;5052375;28;20025;-55
2023/04/11 07:22:57;;;;;;;20.92;4.28;;;;;;;8.29;96.23;101122.47;5053041;28;20473;-57
2023/04/11 07:25:29;;;;;;;25.67;5.10;;;;;;;8.35;93.29;101116.69;5052034;28;20091;-56
2023/04/11 07:27:55;;;;;;;18.67;4.13;;;;;;;8.45;93.10;101121.41;5053219;28;20033;-56
2023/04/11 07:30:20;;;;;;;21.90;5.00;;;;;;;8.52;92.66;101126.03;5052806;28;20039;-56
2023/04/11 07:32:46;;;;;;;19.85;5.53;;;;;;;8.65;92.96;101129.09;5052483;28;20021;-54
2023/04/11 07:35:11;;;;;;;21.23;4.90;;;;;;;8.66;91.30;101124.06;5051852;28;20047;-56
2023/04/11 07:37:37;;;;;;;23.10;4.50;;;;;;;8.88;92.33;101136.09;5051659;28;20060;-56
2023/04/11 07:40:05;;;;;;;24.40;4.55;;;;;;;8.82;89.89;101134.94;5053020;28;20025;-55
2023/04/11 07:42:31;;;;;;;20.50;4.30;;;;;;;8.73;89.93;101138.03;5052548;28;20060;-55
2023/04/11 07:44:56;;;;;;;21.63;4.32;;;;;;;8.74;90.10;101144.94;5052211;28;20404;-57
2023/04/11 07:47:21;;;;;;;18.80;4.15;;;;;;;8.69;89.00;101143.88;5052478;28;20112;-57
2023/04/11 07:49:46;;;;;;;31.83;5.00;;;;;;;8.66;88.65;101143.72;5052627;28;20496;-57
2023/04/11 07:52:12;;;;;;;20.80;4.38;;;;;;;8.78;87.89;101149.38;5052220;28;20027;-57
2023/04/11 07:54:37;;;;;;;19.80;4.40;;;;;;;8.79;86.82;101133.16;5052565;28;20380;-56
2023/04/11 07:57:02;;;;;;;23.20;4.68;;;;;;;8.86;87.67;101137.72;5052745;28;20032;-56
2023/04/11 07:59:27;;;;;;;21.48;4.63;;;;;;;8.96;86.88;101128.69;5051529;28;20112;-55
2023/04/11 08:02:00;;;;;;;26.67;4.22;;;;;;;9.17;86.16;101133.81;5052428;28;20468;-57
2023/04/11 08:04:29;;;;;;;19.00;4.18;;;;;;;9.25;82.58;101140.97;5052107;28;20053;-57
2023/04/11 08:06:56;;;;;;;18.92;3.90;;;;;;;9.34;85.10;101138.75;5051986;28;20044;-55
2023/04/11 08:09:21;;;;;;;20.67;3.95;;;;;;;9.54;84.33;101155.84;5052521;28;20028;-57
2023/04/11 08:11:47;;;;;;;17.00;4.20;;;;;;;9.61;81.56;101163.81;5052656;28;20420;-56
2023/04/11 08:14:12;;;;;;;22.85;3.95;;;;;;;9.82;82.08;101163.75;5051822;28;20112;-55
2023/04/11 08:16:37;;;;;;;18.50;4.05;;;;;;;9.88;81.55;101157.13;5052326;28;20021;-56
2023/04/11 08:19:03;;;;;;;24.02;4.05;;;;;;;9.93;80.98;101167.59;5052330;28;20116;-56
2023/04/11 08:21:28;;;;;;;17.60;3.33;;;;;;;9.95;77.28;101163.38;5051440;28;20052;-57
2023/04/11 08:23:53;;;;;;;18.08;4.07;;;;;;;9.87;77.63;101167.38;5052471;28;20029;-54
2023/04/11 08:26:19;;;;;;;19.92;3.80;;;;;;;9.96;79.37;101175.44;5052033;28;20029;-56
2023/04/11 08:28:45;;;;;;;15.43;3.25;;;;;;;10.07;76.68;101183.56;5051677;28;20021;-54
2023/04/11 08:31:11;;;;;;;14.23;3.53;;;;;;;10.05;72.01;101192.94;5052238;28;20033;-54
2023/04/11 08:33:37;;;;;;;14.18;3.47;;;;;;;10.12;73.55;101197.50;5054889;28;20044;-54
2023/04/11 08:36:04;;;;;;;15.65;3.33;;;;;;;10.08;72.39;101184.44;5055704;28;20029;-55
2023/04/11 08:38:29;;;;;;;21.08;3.70;;;;;;;10.16;71.64;101188.16;5055955;28;20025;-57
2023/04/11 08:40:55;;;;;;;17.90;3.78;;;;;;;10.45;74.33;101194.41;5055478;28;20072;-56
2023/04/11 08:43:20;;;;;;;14.70;3.38;;;;;;;10.50;71.30;101197.16;5055846;28;20035;-57
2023/04/11 08:45:46;;;;;;;13.93;3.25;;;;;;;10.69;69.76;101206.38;5056072;28;20024;-55
2023/04/11 08:48:11;;;;;;;17.60;3.63;;;;;;;10.63;69.31;101198.47;5055288;28;20037;-55
2023/04/11 08:50:39;;;;;;;14.77;3.08;;;;;;;10.84;66.78;101201.75;5055883;28;20041;-54
2023/04/11 08:53:07;;;;;;;;;;;;;;;10.90;67.92;101195.06;5056504;28;20043;-55
2023/04/11 08:55:32;;;;;;;;;;;;;;;10.77;70.81;101204.09;5055397;28;19920;-56
2023/04/11 08:58:01;;;;;;;17.87;3.03;;;;;;;10.68;68.04;101194.34;5056083;28;19913;-56
2023/04/11 09:00:27;;;;;;;15.55;2.95;;;;;;;10.45;65.49;101201.28;5055663;28;20284;-54
2023/04/11 09:02:59;;;;;;;21.05;3.58;;;;;;;10.25;67.70;101203.09;5055152;28;20028;-55
2023/04/11 09:05:26;;;;;;;16.67;3.65;;;;;;;10.35;69.07;101202.59;5055461;28;20040;-55
2023/04/11 09:07:51;;;;;;;14.88;3.90;;;;;;;10.54;68.08;101186.13;5055879;28;20037;-55
2023/04/11 09:10:18;;;;;;;13.10;3.55;;;;;;;10.75;68.84;101186.00;5054624;28;20036;-55
2023/04/11 09:12:44;;;;;;;14.93;3.22;;;;;;;10.84;66.08;101190.59;5055641;28;20028;-56
2023/04/11 09:15:20;;;;;;;14.07;3.05;;;;;;;10.85;63.59;101184.63;5055412;28;20362;-55
2023/04/11 09:17:45;;;;;;;13.55;2.80;;;;;;;11.06;65.08;101194.75;5055000;28;20041;-55
2023/04/11 09:20:30;;;;;;;15.73;3.50;;;;;;;11.39;64.12;101193.22;5055559;28;20432;-56
2023/04/11 09:23:00;;;;;;;16.98;3.42;;;;;;;11.55;62.82;101200.63;5055461;28;20029;-54
2023/04/11 09:25:25;;;;;;;14.00;3.03;;;;;;;11.43;58.17;101203.69;5054659;28;20041;-53
2023/04/11 09:28:06;;;;;;;16.58;3.30;;;;;;;11.44;60.09;101199.41;5055519;28;20037;-54
2023/04/11 09:30:32;;;;;;;14.13;3.20;;;;;;;11.23;60.33;101203.03;5054390;28;20079;-54
2023/04/11 09:32:57;;;;;;;14.82;3.33;;;;;;;11.53;61.05;101198.00;5055310;28;20025;-55
2023/04/11 09:35:24;;;;;;;15.55;3.22;;;;;;;11.56;63.00;101198.94;5055204;28;20460;-52
2023/04/11 09:37:52;;;;;;;13.75;3.08;;;;;;;12.03;62.78;101199.50;5054446;28;20052;-53
2023/04/11 09:40:21;;;;;;;15.48;2.85;;;;;;;12.01;58.68;101214.09;5054685;28;20032;-52
2023/04/11 09:42:54;;;;;;;15.25;2.90;;;;;;;12.49;57.80;101200.81;5054899;28;20059;-51
2023/04/11 09:45:22;;;;;;;13.70;2.78;;;;;;;12.58;58.52;101207.94;5054053;28;20017;-50
2023/04/11 09:47:48;;;;;;;;;;;;;;;12.74;61.82;101209.22;5055471;28;20032;-54
2023/04/11 09:50:14;;;;;;;12.80;2.95;;;;;;;12.99;53.39;101204.72;5054864;28;19912;-54
2023/04/11 09:52:41;;;;;;;14.07;2.72;;;;;;;12.94;52.42;101201.13;5053779;28;20041;-53
2023/04/11 09:55:10;;;;;;;13.77;3.03;;;;;;;13.07;53.73;101205.75;5055025;28;20055;-51
2023/04/11 09:57:37;;;;;;;11.70;2.95;;;;;;;12.84;53.28;101211.22;5054616;28;20061;-54
2023/04/11 10:00:14;;;;;;;13.82;2.70;;;;;;;13.59;53.68;101220.84;5053981;28;20086;-55
2023/04/11 10:02:40;;;;;;;15.43;3.65;;;;;;;14.21;51.21;101204.03;5054300;28;20064;-53
2023/04/11 10:05:07;;;;;;;12.52;2.90;;;;;;;14.25;50.05;101213.63;5054522;28;20080;-54
2023/04/11 10:07:35;;;;;;;11.70;2.42;;;;;;;14.67;48.15;101214.44;5053653;28;20032;-55
2023/04/11 10:10:02;;;;;;;12.38;2.78;;;;;;;14.82;47.03;101215.63;5054675;28;20071;-55
2023/04/11 10:12:34;;;;;;;14.63;3.40;;;;;;;14.66;46.59;101213.59;5053628;28;20044;-56
2023/04/11 10:15:09;;;;;;;8.73;2.50;;;;;;;14.59;46.91;101212.56;5054228;28;20389;-55
2023/04/11 10:17:35;;;;;;;10.10;2.55;;;;;;;14.64;46.36;101210.97;5054041;28;20035;-52
2023/04/11 10:20:01;;;;;;;12.32;2.28;;;;;;;14.94;47.16;101204.59;5053835;28;20021;-52
2023/04/11 10:22:47;;;;;;;13.65;2.70;;;;;;;14.92;47.07;101215.78;5054070;28;20381;-54
2023/04/11 10:25:20;;;;;;;13.25;2.40;;;;;;;14.84;46.26;101214.78;5054322;28;20032;-54
2023/04/11 10:28:00;;;;;;;7.75;2.13;;;;;;;15.21;44.85;101212.78;5053469;28;20114;-53
2023/04/11 10:30:40;;;;;;;13.48;2.70;;;;;;;15.26;44.11;101206.84;5054007;28;20037;-52
2023/04/11 10:33:12;;;;;;;13.68;3.03;;;;;;;15.50;42.00;101209.81;5054301;28;20108;-53
2023/04/11 10:36:03;;;;;;;9.82;2.17;;;;;;;16.25;44.07;101215.16;5053034;28;20029;-54
2023/04/11 10:38:47;;;;;;;13.13;2.45;;;;;;;16.56;41.75;101212.91;5053673;28;20036;-53
2023/04/11 10:41:21;;;;;;;12.90;2.40;;;;;;;16.29;40.76;101206.53;5053381;28;20063;-53
2023/04/11 10:43:47;;;;;;;10.60;2.30;;;;;;;15.72;40.05;101219.63;5053946;28;20037;-52
2023/04/11 10:46:30;;;;;;;9.48;2.53;;;;;;;16.08;41.79;101204.56;5053892;28;20025;-53
2023/04/11 10:49:00;;;;;;;10.43;2.38;;;;;;;15.91;39.83;101217.34;5052806;28;20037;-54
2023/04/11 10:51:27;;;;;;;11.02;2.58;;;;;;;15.97;39.14;101222.59;5053540;28;20013;-54
2023/04/11 10:53:57;;;;;;;10.27;2.60;;;;;;;14.89;39.24;101223.53;5053817;28;20109;-55
2023/04/11 10:56:41;;;;;;;11.70;2.45;;;;;;;14.68;42.18;101219.69;5051898;28;20068;-54
2023/04/11 10:59:09;;;;;;;10.85;2.72;;;;;;;14.60;40.70;101234.19;5053509;28;20044;-54
2023/04/11 11:01:36;;;;;;;8.02;2.20;;;;;;;14.27;42.03;101218.00;5052441;28;20025;-53
2023/04/11 11:04:03;;;;;;;9.00;2.00;;;;;;;13.52;43.21;101224.13;5053471;28;20052;-54
2023/04/11 11:06:28;;;;;;;6.55;1.88;;;;;;;14.10;44.89;101220.25;5053151;28;20429;-54
2023/04/11 11:08:54;;;;;;;9.02;2.30;;;;;;;14.81;41.40;101223.38;5052766;28;20055;-54
2023/04/11 11:11:19;;;;;;;10.75;2.22;;;;;;;15.20;42.14;101219.72;5053185;28;20025;-52
2023/04/11 11:13:49;;;;;;;8.55;1.88;;;;;;;15.63;42.54;101211.72;5053287;28;20021;-52
2023/04/11 11:16:17;;;;;;;12.52;2.35;;;;;;;16.10;40.88;101223.63;5052875;28;20047;-54